sensor_id;sensor_type;location;lat;lon;timestamp;pressure;altitude;pressure_sealevel;temperature;humidity
17525;BME280;40431;52.198;9.902;2023-05-07T00:01:08;101095.72;;;10.74;100.00
17525;BME280;40431;52.198;9.902;2023-05-07T00:03:37;101095.50;;;10.79;100.00
17525;BME280;40431;52.198;9.902;2023-05-07T00:06:04;101097.94;;;10.83;100.00
17525;BME280;40431;52.198;9.902;2023-05-07T00:08:30;101094.53;;;10.80;100.00
17525;BME280;40431;52.198;9.902;2023-05-07T00:10:57;101098.94;;;10.82;100.00
17525;BME280;40431;52.198;9.902;2023-05-07T00:13:23;101092.97;;;10.76;100.00
17525;BME280;40431;52.198;9.902;2023-05-07T00:15:49;101098.59;;;10.71;100.00
17525;BME280;40431;52.198;9.902;2023-05-07T00:18:16;101094.94;;;10.72;100.00
17525;BME280;40431;52.198;9.902;2023-05-07T00:20:47;101094.78;;;10.75;100.00
17525;BME280;40431;52.198;9.902;2023-05-07T00:23:13;101086.63;;;10.75;100.00
17525;BME280;40431;52.198;9.902;2023-05-07T00:25:40;101088.41;;;10.76;100.00
17525;BME280;40431;52.198;9.902;2023-05-07T00:28:06;101087.53;;;10.76;100.00
17525;BME280;40431;52.198;9.902;2023-05-07T00:30:32;101079.44;;;10.74;100.00
17525;BME280;40431;52.198;9.902;2023-05-07T00:32:59;101072.94;;;10.61;100.00
17525;BME280;40431;52.198;9.902;2023-05-07T00:35:25;101070.38;;;10.58;100.00
17525;BME280;40431;52.198;9.902;2023-05-07T00:37:53;101066.91;;;10.56;100.00
17525;BME280;40431;52.198;9.902;2023-05-07T00:40:20;101066.09;;;10.53;100.00
17525;BME280;40431;52.198;9.902;2023-05-07T00:42:46;101061.69;;;10.51;100.00
17525;BME280;40431;52.198;9.902;2023-05-07T00:45:14;101061.69;;;10.51;100.00
17525;BME280;40431;52.198;9.902;2023-05-07T00:47:41;101057.22;;;10.50;100.00
17525;BME280;40431;52.198;9.902;2023-05-07T00:50:08;101061.69;;;10.51;100.00
17525;BME280;40431;52.198;9.902;2023-05-07T00:52:37;101067.22;;;10.49;100.00
17525;BME280;40431;52.198;9.902;2023-05-07T00:55:06;101070.56;;;10.37;100.00
17525;BME280;40431;52.198;9.902;2023-05-07T00:57:36;101065.59;;;10.28;100.00
17525;BME280;40431;52.198;9.902;2023-05-07T01:00:03;101072.75;;;10.29;100.00
17525;BME280;40431;52.198;9.902;2023-05-07T01:02:30;101067.97;;;10.34;100.00
17525;BME280;40431;52.198;9.902;2023-05-07T01:04:56;101070.41;;;10.40;100.00
17525;BME280;40431;52.198;9.902;2023-05-07T01:07:23;101072.31;;;10.38;100.00
17525;BME280;40431;52.198;9.902;2023-05-07T01:09:50;101073.13;;;10.40;100.00
17525;BME280;40431;52.198;9.902;2023-05-07T01:12:17;101068.66;;;10.39;100.00
17525;BME280;40431;52.198;9.902;2023-05-07T01:14:44;101068.81;;;10.36;100.00
17525;BME280;40431;52.198;9.902;2023-05-07T01:17:10;101070.56;;;10.37;100.00
17525;BME280;40431;52.198;9.902;2023-05-07T01:19:37;101076.78;;;10.39;100.00
17525;BME280;40431;52.198;9.902;2023-05-07T01:22:10;101076.09;;;10.34;100.00
17525;BME280;40431;52.198;9.902;2023-05-07T01:24:38;101077.00;;;10.34;100.00
17525;BME280;40431;52.198;9.902;2023-05-07T01:27:04;101072.75;;;10.29;100.00
17525;BME280;40431;52.198;9.902;2023-05-07T01:29:30;101081.69;;;10.31;100.00
17525;BME280;40431;52.198;9.902;2023-05-07T01:31:59;101081.69;;;10.31;100.00
17525;BME280;40431;52.198;9.902;2023-05-07T01:34:28;101076.28;;;10.31;100.00
17525;BME280;40431;52.198;9.902;2023-05-07T01:36:57;101086.16;;;10.32;100.00
17525;BME280;40431;52.198;9.902;2023-05-07T01:39:25;101083.00;;;10.41;100.00
17525;BME280;40431;52.198;9.902;2023-05-07T01:41:54;101078.53;;;10.40;100.00
17525;BME280;40431;52.198;9.902;2023-05-07T01:44:22;101078.16;;;10.29;100.00
17525;BME280;40431;52.198;9.902;2023-05-07T01:46:49;101082.06;;;10.23;100.00
17525;BME280;40431;52.198;9.902;2023-05-07T01:49:16;101083.75;;;10.26;100.00
17525;BME280;40431;52.198;9.902;2023-05-07T01:51:43;101078.97;;;10.13;100.00
17525;BME280;40431;52.198;9.902;2023-05-07T01:54:10;101076.34;;;10.12;100.00
17525;BME280;40431;52.198;9.902;2023-05-07T01:56:36;101069.09;;;10.12;100.00
17525;BME280;40431;52.198;9.902;2023-05-07T01:59:04;101069.09;;;10.12;100.00
17525;BME280;40431;52.198;9.902;2023-05-07T02:01:30;101079.84;;;10.14;100.00
17525;BME280;40431;52.198;9.902;2023-05-07T02:03:57;101069.84;;;10.14;100.00
17525;BME280;40431;52.198;9.902;2023-05-07T02:06:23;101075.28;;;10.14;100.00
17525;BME280;40431;52.198;9.902;2023-05-07T02:08:49;101068.81;;;10.17;100.00
17525;BME280;40431;52.198;9.902;2023-05-07T02:11:16;101078.00;;;10.14;100.00
17525;BME280;40431;52.198;9.902;2023-05-07T02:13:42;101083.03;;;10.22;100.00
17525;BME280;40431;52.198;9.902;2023-05-07T02:16:10;101087.41;;;10.25;100.00
17525;BME280;40431;52.198;9.902;2023-05-07T02:18:39;101079.75;;;10.33;100.00
17525;BME280;40431;52.198;9.902;2023-05-07T02:21:05;101082.63;;;10.30;100.00
17525;BME280;40431;52.198;9.902;2023-05-07T02:23:32;101085.53;;;10.27;100.00
17525;BME280;40431;52.198;9.902;2023-05-07T02:25:58;101086.38;;;10.27;100.00
17525;BME280;40431;52.198;9.902;2023-05-07T02:28:24;101105.44;;;10.26;100.00
17525;BME280;40431;52.198;9.902;2023-05-07T02:30:51;101105.59;;;10.23;100.00
17525;BME280;40431;52.198;9.902;2023-05-07T02:33:19;101107.50;;;10.20;100.00
17525;BME280;40431;52.198;9.902;2023-05-07T02:35:45;101100.66;;;10.13;100.00
17525;BME280;40431;52.198;9.902;2023-05-07T02:38:11;101100.31;;;10.19;100.00
17525;BME280;40431;52.198;9.902;2023-05-07T02:40:38;101096.66;;;10.20;100.00
17525;BME280;40431;52.198;9.902;2023-05-07T02:43:05;101108.06;;;10.27;100.00
17525;BME280;40431;52.198;9.902;2023-05-07T02:45:31;101105.59;;;10.23;100.00
17525;BME280;40431;52.198;9.902;2023-05-07T02:47:58;101105.91;;;10.16;100.00
17525;BME280;40431;52.198;9.902;2023-05-07T02:50:26;101114.84;;;10.18;100.00
17525;BME280;40431;52.198;9.902;2023-05-07T02:52:52;101111.03;;;10.23;100.00
17525;BME280;40431;52.198;9.902;2023-05-07T02:55:19;101108.31;;;10.23;100.00
17525;BME280;40431;52.198;9.902;2023-05-07T02:57:45;101110.13;;;10.22;100.00
17525;BME280;40431;52.198;9.902;2023-05-07T03:00:14;101096.66;;;10.20;100.00
17525;BME280;40431;52.198;9.902;2023-05-07T03:02:40;101103.13;;;10.18;100.00
17525;BME280;40431;52.198;9.902;2023-05-07T03:05:07;101093.31;;;10.15;100.00
17525;BME280;40431;52.198;9.902;2023-05-07T03:07:35;101091.88;;;10.08;100.00
17525;BME280;40431;52.198;9.902;2023-05-07T03:10:02;101092.03;;;10.05;100.00
17525;BME280;40431;52.198;9.902;2023-05-07T03:12:29;101093.63;;;10.09;100.00
17525;BME280;40431;52.198;9.902;2023-05-07T03:14:56;101092.81;;;10.07;100.00
17525;BME280;40431;52.198;9.902;2023-05-07T03:17:22;101087.88;;;10.15;100.00
17525;BME280;40431;52.198;9.902;2023-05-07T03:19:49;101089.06;;;10.10;100.00
17525;BME280;40431;52.198;9.902;2023-05-07T03:22:15;101086.44;;;10.08;100.00
17525;BME280;40431;52.198;9.902;2023-05-07T03:24:43;101091.13;;;10.05;100.00
17525;BME280;40431;52.198;9.902;2023-05-07T03:27:09;101090.28;;;10.04;100.00
17525;BME280;40431;52.198;9.902;2023-05-07T03:29:35;101080.47;;;10.01;100.00
17525;BME280;40431;52.198;9.902;2023-05-07T03:32:02;101086.63;;;10.05;100.00
17525;BME280;40431;52.198;9.902;2023-05-07T03:34:28;101079.53;;;10.02;100.00
17525;BME280;40431;52.198;9.902;2023-05-07T03:36:54;101077.50;;;10.06;100.00
17525;BME280;40431;52.198;9.902;2023-05-07T03:39:21;101076.25;;;9.96;100.00
17525;BME280;40431;52.198;9.902;2023-05-07T03:41:49;101077.97;;;9.97;100.00
17525;BME280;40431;52.198;9.902;2023-05-07T03:44:15;101079.91;;;9.95;100.00
17525;BME280;40431;52.198;9.902;2023-05-07T03:46:42;101079.56;;;10.01;100.00
17525;BME280;40431;52.198;9.902;2023-05-07T03:49:08;101073.38;;;9.99;100.00
17525;BME280;40431;52.198;9.902;2023-05-07T03:51:34;101080.84;;;9.94;100.00
17525;BME280;40431;52.198;9.902;2023-05-07T03:54:01;101081.38;;;9.83;100.00
17525;BME280;40431;52.198;9.902;2023-05-07T03:56:27;101076.53;;;9.90;100.00
17525;BME280;40431;52.198;9.902;2023-05-07T03:58:55;101076.75;;;9.85;100.00
17525;BME280;40431;52.198;9.902;2023-05-07T04:01:22;101080.19;;;9.89;100.00
17525;BME280;40431;52.198;9.902;2023-05-07T04:03:48;101077.66;;;9.85;100.00
17525;BME280;40431;52.198;9.902;2023-05-07T04:06:15;101098.13;;;9.91;100.00
17525;BME280;40431;52.198;9.902;2023-05-07T04:08:42;101088.81;;;9.97;100.00
17525;BME280;40431;52.198;9.902;2023-05-07T04:11:08;101104.19;;;9.96;100.00
17525;BME280;40431;52.198;9.902;2023-05-07T04:13:35;101095.25;;;9.94;100.00
17525;BME280;40431;52.198;9.902;2023-05-07T04:16:05;101101.69;;;9.92;100.00
17525;BME280;40431;52.198;9.902;2023-05-07T04:18:32;101105.38;;;9.91;100.00
17525;BME280;40431;52.198;9.902;2023-05-07T04:20:58;101102.72;;;9.89;100.00
17525;BME280;40431;52.198;9.902;2023-05-07T04:23:25;101108.22;;;9.88;100.00
17525;BME280;40431;52.198;9.902;2023-05-07T04:25:51;101105.69;;;9.84;100.00
17525;BME280;40431;52.198;9.902;2023-05-07T04:28:19;101109.50;;;9.80;100.00
17525;BME280;40431;52.198;9.902;2023-05-07T04:30:45;101117.38;;;9.85;100.00
17525;BME280;40431;52.198;9.902;2023-05-07T04:33:15;101119.88;;;9.90;100.00
17525;BME280;40431;52.198;9.902;2023-05-07T04:35:42;101114.47;;;9.90;100.00
17525;BME280;40431;52.198;9.902;2023-05-07T04:38:08;101120.03;;;9.86;100.00
17525;BME280;40431;52.198;9.902;2023-05-07T04:40:35;101126.31;;;9.87;100.00
17525;BME280;40431;52.198;9.902;2023-05-07T04:43:02;101123.53;;;9.89;100.00
17525;BME280;40431;52.198;9.902;2023-05-07T04:45:28;101128.78;;;9.92;100.00
17525;BME280;40431;52.198;9.902;2023-05-07T04:47:54;101129.59;;;9.94;100.00
17525;BME280;40431;52.198;9.902;2023-05-07T04:50:22;101129.78;;;9.91;100.00
17525;BME280;40431;52.198;9.902;2023-05-07T04:52:49;101130.63;;;9.91;100.00
17525;BME280;40431;52.198;9.902;2023-05-07T04:55:17;101139.78;;;9.89;100.00
17525;BME280;40431;52.198;9.902;2023-05-07T04:57:44;101134.53;;;9.85;100.00
17525;BME280;40431;52.198;9.902;2023-05-07T05:00:11;101146.06;;;9.89;100.00
17525;BME280;40431;52.198;9.902;2023-05-07T05:02:39;101143.31;;;9.91;100.00
17525;BME280;40431;52.198;9.902;2023-05-07T05:05:06;101154.16;;;9.91;100.00
17525;BME280;40431;52.198;9.902;2023-05-07T05:07:34;101156.78;;;9.92;100.00
17525;BME280;40431;52.198;9.902;2023-05-07T05:10:01;101154.84;;;9.94;100.00
17525;BME280;40431;52.198;9.902;2023-05-07T05:12:28;101150.16;;;9.98;100.00
17525;BME280;40431;52.198;9.902;2023-05-07T05:14:55;101151.69;;;10.03;100.00
17525;BME280;40431;52.198;9.902;2023-05-07T05:17:21;101146.53;;;9.99;100.00
17525;BME280;40431;52.198;9.902;2023-05-07T05:19:47;101157.50;;;9.96;100.00
17525;BME280;40431;52.198;9.902;2023-05-07T05:22:14;101158.97;;;10.03;100.00
17525;BME280;40431;52.198;9.902;2023-05-07T05:24:41;101154.66;;;9.99;100.00
17525;BME280;40431;52.198;9.902;2023-05-07T05:27:08;101159.16;;;9.98;100.00
17525;BME280;40431;52.198;9.902;2023-05-07T05:29:34;101154.72;;;9.97;100.00
17525;BME280;40431;52.198;9.902;2023-05-07T05:32:00;101162.03;;;9.95;100.00
17525;BME280;40431;52.198;9.902;2023-05-07T05:34:29;101166.59;;;9.95;100.00
17525;BME280;40431;52.198;9.902;2023-05-07T05:36:55;101167.03;;;9.85;100.00
17525;BME280;40431;52.198;9.902;2023-05-07T05:39:22;101166.72;;;9.92;100.00
17525;BME280;40431;52.198;9.902;2023-05-07T05:41:49;101171.19;;;9.93;100.00
17525;BME280;40431;52.198;9.902;2023-05-07T05:44:16;101169.50;;;9.90;100.00
17525;BME280;40431;52.198;9.902;2023-05-07T05:46:42;101173.91;;;9.93;100.00
17525;BME280;40431;52.198;9.902;2023-05-07T05:49:10;101182.09;;;9.91;100.00
17525;BME280;40431;52.198;9.902;2023-05-07T05:51:37;101180.22;;;9.93;100.00
17525;BME280;40431;52.198;9.902;2023-05-07T05:54:03;101173.63;;;9.99;100.00
17525;BME280;40431;52.198;9.902;2023-05-07T05:56:30;101170.00;;;9.98;100.00
17525;BME280;40431;52.198;9.902;2023-05-07T05:58:57;101173.63;;;9.99;100.00
17525;BME280;40431;52.198;9.902;2023-05-07T06:01:24;101166.13;;;10.04;100.00
17525;BME280;40431;52.198;9.902;2023-05-07T06:03:50;101164.22;;;10.06;100.00
17525;BME280;40431;52.198;9.902;2023-05-07T06:06:16;101161.44;;;10.08;100.00
17525;BME280;40431;52.198;9.902;2023-05-07T06:08:43;101160.56;;;10.07;100.00
17525;BME280;40431;52.198;9.902;2023-05-07T06:11:09;101162.31;;;10.08;100.00
17525;BME280;40431;52.198;9.902;2023-05-07T06:13:36;101155.13;;;10.07;100.00
17525;BME280;40431;52.198;9.902;2023-05-07T06:16:04;101167.59;;;10.11;100.00
17525;BME280;40431;52.198;9.902;2023-05-07T06:18:31;101166.09;;;10.23;100.00
17525;BME280;40431;52.198;9.902;2023-05-07T06:20:57;101163.16;;;10.28;100.00
17525;BME280;40431;52.198;9.902;2023-05-07T06:23:24;101161.69;;;10.20;100.00
17525;BME280;40431;52.198;9.902;2023-05-07T06:25:50;101159.66;;;10.26;100.00
17525;BME280;40431;52.198;9.902;2023-05-07T06:28:17;101171.13;;;10.31;100.00
17525;BME280;40431;52.198;9.902;2023-05-07T06:30:43;101175.41;;;10.36;100.00
17525;BME280;40431;52.198;9.902;2023-05-07T06:33:11;101177.91;;;10.41;100.00
17525;BME280;40431;52.198;9.902;2023-05-07T06:35:37;101178.69;;;10.43;100.00
17525;BME280;40431;52.198;9.902;2023-05-07T06:38:04;101178.59;;;10.45;100.00
17525;BME280;40431;52.198;9.902;2023-05-07T06:40:30;101173.81;;;10.50;100.00
17525;BME280;40431;52.198;9.902;2023-05-07T06:42:56;101172.94;;;10.49;100.00
17525;BME280;40431;52.198;9.902;2023-05-07T06:45:23;101187.00;;;10.58;100.00
17525;BME280;40431;52.198;9.902;2023-05-07T06:47:50;101182.84;;;10.68;100.00
17525;BME280;40431;52.198;9.902;2023-05-07T06:50:18;101179.41;;;10.82;100.00
17525;BME280;40431;52.198;9.902;2023-05-07T06:52:44;101178.38;;;10.84;100.00
17525;BME280;40431;52.198;9.902;2023-05-07T06:55:10;101185.41;;;10.89;100.00
17525;BME280;40431;52.198;9.902;2023-05-07T06:57:37;101192.75;;;10.86;100.00
17525;BME280;40431;52.198;9.902;2023-05-07T07:00:06;101179.88;;;10.90;100.00
17525;BME280;40431;52.198;9.902;2023-05-07T07:02:34;101185.88;;;10.79;100.00
17525;BME280;40431;52.198;9.902;2023-05-07T07:05:00;101191.00;;;10.85;100.00
17525;BME280;40431;52.198;9.902;2023-05-07T07:07:28;101189.78;;;10.91;100.00
17525;BME280;40431;52.198;9.902;2023-05-07T07:09:55;101187.50;;;11.01;100.00
17525;BME280;40431;52.198;9.902;2023-05-07T07:12:21;101195.28;;;11.07;100.00
17525;BME280;40431;52.198;9.902;2023-05-07T07:14:50;101193.22;;;11.12;100.00
17525;BME280;40431;52.198;9.902;2023-05-07T07:17:16;101189.28;;;11.18;100.00
17525;BME280;40431;52.198;9.902;2023-05-07T07:19:43;101191.13;;;11.17;100.00
17525;BME280;40431;52.198;9.902;2023-05-07T07:22:09;101195.75;;;11.15;100.00
17525;BME280;40431;52.198;9.902;2023-05-07T07:24:37;101194.16;;;11.29;100.00
17525;BME280;40431;52.198;9.902;2023-05-07T07:27:03;101184.81;;;11.34;100.00
17525;BME280;40431;52.198;9.902;2023-05-07T07:29:30;101201.38;;;11.46;100.00
17525;BME280;40431;52.198;9.902;2023-05-07T07:31:56;101196.31;;;11.56;100.00
17525;BME280;40431;52.198;9.902;2023-05-07T07:34:23;101204.75;;;11.67;100.00
17525;BME280;40431;52.198;9.902;2023-05-07T07:36:49;101193.38;;;11.76;100.00
17525;BME280;40431;52.198;9.902;2023-05-07T07:39:15;101194.63;;;11.86;100.00
17525;BME280;40431;52.198;9.902;2023-05-07T07:41:43;101198.69;;;11.95;100.00
17525;BME280;40431;52.198;9.902;2023-05-07T07:44:09;101198.22;;;12.03;100.00
17525;BME280;40431;52.198;9.902;2023-05-07T07:46:38;101186.69;;;11.99;100.00
17525;BME280;40431;52.198;9.902;2023-05-07T07:49:04;101189.31;;;12.01;100.00
17525;BME280;40431;52.198;9.902;2023-05-07T07:51:31;101201.56;;;12.08;100.00
17525;BME280;40431;52.198;9.902;2023-05-07T07:53:57;101201.75;;;12.05;100.00
17525;BME280;40431;52.198;9.902;2023-05-07T07:56:23;101205.34;;;12.06;100.00
17525;BME280;40431;52.198;9.902;2023-05-07T07:58:51;101204.47;;;12.05;100.00
17525;BME280;40431;52.198;9.902;2023-05-07T08:01:17;101213.50;;;12.06;100.00
17525;BME280;40431;52.198;9.902;2023-05-07T08:03:44;101201.22;;;11.98;100.00
17525;BME280;40431;52.198;9.902;2023-05-07T08:06:10;101209.38;;;11.98;100.00
17525;BME280;40431;52.198;9.902;2023-05-07T08:08:37;101205.00;;;11.96;100.00
17525;BME280;40431;52.198;9.902;2023-05-07T08:11:03;101212.09;;;11.98;100.00
17525;BME280;40431;52.198;9.902;2023-05-07T08:13:30;101215.00;;;11.95;100.00
17525;BME280;40431;52.198;9.902;2023-05-07T08:15:57;101215.59;;;12.00;100.00
17525;BME280;40431;52.198;9.902;2023-05-07T08:18:24;101215.34;;;12.05;100.00
17525;BME280;40431;52.198;9.902;2023-05-07T08:20:51;101207.53;;;11.99;100.00
17525;BME280;40431;52.198;9.902;2023-05-07T08:23:17;101206.06;;;12.09;100.00
17525;BME280;40431;52.198;9.902;2023-05-07T08:25:43;101206.06;;;12.09;100.00
17525;BME280;40431;52.198;9.902;2023-05-07T08:28:10;101213.25;;;12.10;100.00
17525;BME280;40431;52.198;9.902;2023-05-07T08:30:36;101209.56;;;12.11;100.00
17525;BME280;40431;52.198;9.902;2023-05-07T08:33:04;101214.13;;;12.11;100.00
17525;BME280;40431;52.198;9.902;2023-05-07T08:35:30;101218.84;;;12.07;100.00
17525;BME280;40431;52.198;9.902;2023-05-07T08:37:56;101211.50;;;12.09;100.00
17525;BME280;40431;52.198;9.902;2023-05-07T08:40:25;101224.56;;;12.18;100.00
17525;BME280;40431;52.198;9.902;2023-05-07T08:42:52;101228.13;;;12.35;100.00
17525;BME280;40431;52.198;9.902;2023-05-07T08:45:20;101239.38;;;12.29;100.00
17525;BME280;40431;52.198;9.902;2023-05-07T08:47:49;101232.38;;;12.25;100.00
17525;BME280;40431;52.198;9.902;2023-05-07T08:50:18;101224.56;;;12.18;100.00
17525;BME280;40431;52.198;9.902;2023-05-07T08:52:44;101228.00;;;12.22;100.00
17525;BME280;40431;52.198;9.902;2023-05-07T08:55:12;101236.06;;;12.24;100.00
17525;BME280;40431;52.198;9.902;2023-05-07T08:57:39;101230.69;;;12.06;100.00
17525;BME280;40431;52.198;9.902;2023-05-07T09:00:06;101232.53;;;12.22;100.00
17525;BME280;40431;52.198;9.902;2023-05-07T09:02:33;101227.09;;;12.38;100.00
17525;BME280;40431;52.198;9.902;2023-05-07T09:04:59;101226.94;;;12.41;100.00
17525;BME280;40431;52.198;9.902;2023-05-07T09:07:27;101224.13;;;12.42;100.00
17525;BME280;40431;52.198;9.902;2023-05-07T09:09:53;101229.00;;;12.51;100.00
17525;BME280;40431;52.198;9.902;2023-05-07T09:12:21;101236.03;;;12.56;100.00
17525;BME280;40431;52.198;9.902;2023-05-07T09:14:48;101228.06;;;12.52;100.00
17525;BME280;40431;52.198;9.902;2023-05-07T09:17:15;101226.44;;;12.48;100.00
17525;BME280;40431;52.198;9.902;2023-05-07T09:19:43;101216.38;;;12.50;100.00
17525;BME280;40431;52.198;9.902;2023-05-07T09:22:10;101222.94;;;12.62;100.00
17525;BME280;40431;52.198;9.902;2023-05-07T09:24:38;101225.47;;;12.65;100.00
17525;BME280;40431;52.198;9.902;2023-05-07T09:27:04;101218.19;;;12.66;100.00
17525;BME280;40431;52.198;9.902;2023-05-07T09:29:31;101222.50;;;12.70;100.00
17525;BME280;40431;52.198;9.902;2023-05-07T09:32:00;101220.53;;;12.72;100.00
17525;BME280;40431;52.198;9.902;2023-05-07T09:34:28;101217.41;;;12.64;100.00
17525;BME280;40431;52.198;9.902;2023-05-07T09:36:55;101225.06;;;12.57;100.00
17525;BME280;40431;52.198;9.902;2023-05-07T09:39:21;101223.19;;;12.58;100.00
17525;BME280;40431;52.198;9.902;2023-05-07T09:41:50;101232.69;;;12.50;100.00
17525;BME280;40431;52.198;9.902;2023-05-07T09:44:20;101223.47;;;12.53;100.00
17525;BME280;40431;52.198;9.902;2023-05-07T09:46:51;101220.03;;;12.65;100.00
17525;BME280;40431;52.198;9.902;2023-05-07T09:49:22;101218.81;;;12.71;100.00
17525;BME280;40431;52.198;9.902;2023-05-07T09:51:50;101229.50;;;12.74;100.00
17525;BME280;40431;52.198;9.902;2023-05-07T09:54:18;101224.25;;;12.71;100.00
17525;BME280;40431;52.198;9.902;2023-05-07T09:56:45;101225.72;;;12.77;100.00
17525;BME280;40431;52.198;9.902;2023-05-07T09:59:15;101223.50;;;12.83;100.00
17525;BME280;40431;52.198;9.902;2023-05-07T10:01:43;101224.13;;;12.89;100.00
17525;BME280;40431;52.198;9.902;2023-05-07T10:04:10;101235.31;;;12.98;100.00
17525;BME280;40431;52.198;9.902;2023-05-07T10:06:38;101236.78;;;13.04;100.00
17525;BME280;40431;52.198;9.902;2023-05-07T10:09:05;101230.53;;;12.88;100.00
17525;BME280;40431;52.198;9.902;2023-05-07T10:11:32;101226.63;;;12.92;99.80
17525;BME280;40431;52.198;9.902;2023-05-07T10:13:59;101232.88;;;12.94;100.00
17525;BME280;40431;52.198;9.902;2023-05-07T10:16:29;101239.91;;;12.98;100.00
17525;BME280;40431;52.198;9.902;2023-05-07T10:18:58;101235.88;;;12.89;99.87
17525;BME280;40431;52.198;9.902;2023-05-07T10:21:26;101236.66;;;12.91;100.00
17525;BME280;40431;52.198;9.902;2023-05-07T10:23:57;101237.88;;;12.85;100.00
17525;BME280;40431;52.198;9.902;2023-05-07T10:26:25;101239.78;;;12.69;100.00
17525;BME280;40431;52.198;9.902;2023-05-07T10:28:57;101234.75;;;12.77;100.00
17525;BME280;40431;52.198;9.902;2023-05-07T10:31:52;101232.53;;;12.84;100.00
17525;BME280;40431;52.198;9.902;2023-05-07T10:34:24;101245.59;;;12.93;100.00
17525;BME280;40431;52.198;9.902;2023-05-07T10:36:52;101248.06;;;12.98;100.00
17525;BME280;40431;52.198;9.902;2023-05-07T10:39:19;101248.56;;;13.05;100.00
17525;BME280;40431;52.198;9.902;2023-05-07T10:41:46;101248.09;;;13.12;100.00
17525;BME280;40431;52.198;9.902;2023-05-07T10:44:24;101246.94;;;13.16;100.00
17525;BME280;40431;52.198;9.902;2023-05-07T10:47:05;101251.84;;;13.26;98.85
17525;BME280;40431;52.198;9.902;2023-05-07T10:49:34;101246.38;;;13.26;98.41
17525;BME280;40431;52.198;9.902;2023-05-07T10:52:14;101246.97;;;13.31;99.01
17525;BME280;40431;52.198;9.902;2023-05-07T10:54:41;101247.91;;;13.46;99.54
17525;BME280;40431;52.198;9.902;2023-05-07T10:57:32;101242.47;;;13.46;98.85
17525;BME280;40431;52.198;9.902;2023-05-07T11:00:00;101248.56;;;13.49;97.25
17525;BME280;40431;52.198;9.902;2023-05-07T11:05:29;101252.78;;;13.69;96.15
17525;BME280;40431;52.198;9.902;2023-05-07T11:07:56;101255.03;;;13.63;95.12
17525;BME280;40431;52.198;9.902;2023-05-07T11:10:23;101247.34;;;13.69;96.49
17525;BME280;40431;52.198;9.902;2023-05-07T11:12:53;101251.72;;;13.72;97.02
17525;BME280;40431;52.198;9.902;2023-05-07T11:15:34;101255.59;;;13.82;96.23
17525;BME280;40431;52.198;9.902;2023-05-07T11:18:01;101248.41;;;13.67;95.71
17525;BME280;40431;52.198;9.902;2023-05-07T11:20:47;101243.56;;;13.72;94.99
17525;BME280;40431;52.198;9.902;2023-05-07T11:26:45;101246.56;;;13.67;96.58
17525;BME280;40431;52.198;9.902;2023-05-07T11:29:16;101243.94;;;13.66;95.61
17525;BME280;40431;52.198;9.902;2023-05-07T11:31:42;101249.00;;;13.72;96.54
17525;BME280;40431;52.198;9.902;2023-05-07T11:34:09;101245.84;;;13.64;95.01
17525;BME280;40431;52.198;9.902;2023-05-07T11:36:43;101254.44;;;13.72;95.93
17525;BME280;40431;52.198;9.902;2023-05-07T11:39:32;101247.81;;;13.76;96.14
17525;BME280;40431;52.198;9.902;2023-05-07T11:42:01;101253.06;;;13.65;95.01
17525;BME280;40431;52.198;9.902;2023-05-07T11:44:41;101254.44;;;13.72;95.46
17525;BME280;40431;52.198;9.902;2023-05-07T11:47:07;101242.38;;;13.62;94.25
17525;BME280;40431;52.198;9.902;2023-05-07T11:49:34;101256.59;;;13.67;95.53
17525;BME280;40431;52.198;9.902;2023-05-07T11:52:02;101241.78;;;13.71;94.22
17525;BME280;40431;52.198;9.902;2023-05-07T11:54:35;101247.91;;;13.89;94.50
17525;BME280;40431;52.198;9.902;2023-05-07T11:57:01;101247.81;;;13.91;93.68
17525;BME280;40431;52.198;9.902;2023-05-07T11:59:27;101244.19;;;14.05;93.44
17525;BME280;40431;52.198;9.902;2023-05-07T12:01:56;101232.22;;;14.07;91.04
17525;BME280;40431;52.198;9.902;2023-05-07T12:04:23;101238.03;;;14.15;90.73
17525;BME280;40431;52.198;9.902;2023-05-07T12:06:53;101240.00;;;14.13;91.89
17525;BME280;40431;52.198;9.902;2023-05-07T12:09:22;101242.59;;;14.29;90.85
17525;BME280;40431;52.198;9.902;2023-05-07T12:11:48;101255.53;;;14.40;90.64
17525;BME280;40431;52.198;9.902;2023-05-07T12:14:14;101250.72;;;14.44;90.20
17525;BME280;40431;52.198;9.902;2023-05-07T12:16:42;101259.94;;;14.56;90.36
17525;BME280;40431;52.198;9.902;2023-05-07T12:19:08;101251.59;;;14.59;88.98
17525;BME280;40431;52.198;9.902;2023-05-07T12:21:37;101257.53;;;14.51;86.67
17525;BME280;40431;52.198;9.902;2023-05-07T12:24:05;101252.94;;;14.51;89.24
17525;BME280;40431;52.198;9.902;2023-05-07T12:26:37;101247.13;;;14.43;87.39
17525;BME280;40431;52.198;9.902;2023-05-07T12:29:03;101261.13;;;14.51;87.82
17525;BME280;40431;52.198;9.902;2023-05-07T12:31:31;101258.63;;;14.48;88.89
17525;BME280;40431;52.198;9.902;2023-05-07T12:33:57;101263.75;;;14.67;88.31
17525;BME280;40431;52.198;9.902;2023-05-07T12:36:23;101251.34;;;14.76;87.58
17525;BME280;40431;52.198;9.902;2023-05-07T12:38:51;101249.28;;;14.80;86.97
17525;BME280;40431;52.198;9.902;2023-05-07T12:41:17;101256.13;;;14.73;86.49
17525;BME280;40431;52.198;9.902;2023-05-07T12:43:45;101247.19;;;14.71;87.68
17525;BME280;40431;52.198;9.902;2023-05-07T12:46:12;101241.72;;;14.71;86.91
17525;BME280;40431;52.198;9.902;2023-05-07T12:48:43;101240.22;;;14.79;86.63
17525;BME280;40431;52.198;9.902;2023-05-07T12:51:10;101237.69;;;14.76;86.05